sensor_id;sensor_type;location;lat;lon;timestamp;temperature;humidity
67064;SHT30;58476;48.072;11.970;2023-02-28T00:01:37;21.38;41.79
67064;SHT30;58476;48.072;11.970;2023-02-28T00:04:03;21.37;41.71
67064;SHT30;58476;48.072;11.970;2023-02-28T00:06:28;21.41;41.73
67064;SHT30;58476;48.072;11.970;2023-02-28T00:08:54;21.42;41.69
67064;SHT30;58476;48.072;11.970;2023-02-28T00:11:21;21.41;41.64
67064;SHT30;58476;48.072;11.970;2023-02-28T00:13:47;21.44;41.63
67064;SHT30;58476;48.072;11.970;2023-02-28T00:16:20;21.44;41.60
67064;SHT30;58476;48.072;11.970;2023-02-28T00:18:46;21.47;41.66
67064;SHT30;58476;48.072;11.970;2023-02-28T00:21:11;21.41;41.57
67064;SHT30;58476;48.072;11.970;2023-02-28T00:23:37;21.44;41.61
67064;SHT30;58476;48.072;11.970;2023-02-28T00:26:03;21.44;41.59
67064;SHT30;58476;48.072;11.970;2023-02-28T00:28:29;21.45;41.56
67064;SHT30;58476;48.072;11.970;2023-02-28T00:30:54;21.42;41.57
67064;SHT30;58476;48.072;11.970;2023-02-28T00:33:20;21.45;41.53
67064;SHT30;58476;48.072;11.970;2023-02-28T00:35:46;21.44;41.54
67064;SHT30;58476;48.072;11.970;2023-02-28T00:38:13;21.45;41.66
67064;SHT30;58476;48.072;11.970;2023-02-28T00:40:38;21.45;41.76
67064;SHT30;58476;48.072;11.970;2023-02-28T00:43:03;21.44;41.72
67064;SHT30;58476;48.072;11.970;2023-02-28T00:45:29;21.47;41.63
67064;SHT30;58476;48.072;11.970;2023-02-28T00:47:56;21.41;41.71
67064;SHT30;58476;48.072;11.970;2023-02-28T00:50:21;21.41;41.73
67064;SHT30;58476;48.072;11.970;2023-02-28T00:52:47;21.42;41.65
67064;SHT30;58476;48.072;11.970;2023-02-28T00:55:13;21.39;41.70
67064;SHT30;58476;48.072;11.970;2023-02-28T00:57:39;21.38;41.66
67064;SHT30;58476;48.072;11.970;2023-02-28T01:00:05;21.37;41.65
67064;SHT30;58476;48.072;11.970;2023-02-28T01:02:31;21.32;41.56
67064;SHT30;58476;48.072;11.970;2023-02-28T01:04:57;21.30;41.64
67064;SHT30;58476;48.072;11.970;2023-02-28T01:07:23;21.27;41.85
67064;SHT30;58476;48.072;11.970;2023-02-28T01:09:48;21.27;41.92
67064;SHT30;58476;48.072;11.970;2023-02-28T01:12:14;21.24;41.93
67064;SHT30;58476;48.072;11.970;2023-02-28T01:14:39;21.24;42.06
67064;SHT30;58476;48.072;11.970;2023-02-28T01:17:05;21.24;41.93
67064;SHT30;58476;48.072;11.970;2023-02-28T01:19:31;21.20;41.93
67064;SHT30;58476;48.072;11.970;2023-02-28T01:21:56;21.23;42.12
67064;SHT30;58476;48.072;11.970;2023-02-28T01:24:21;21.20;42.34
67064;SHT30;58476;48.072;11.970;2023-02-28T01:26:47;21.18;42.22
67064;SHT30;58476;48.072;11.970;2023-02-28T01:29:12;21.21;42.22
67064;SHT30;58476;48.072;11.970;2023-02-28T01:31:37;21.18;41.83
67064;SHT30;58476;48.072;11.970;2023-02-28T01:34:03;21.14;41.82
67064;SHT30;58476;48.072;11.970;2023-02-28T01:36:28;21.12;42.03
67064;SHT30;58476;48.072;11.970;2023-02-28T01:38:54;21.11;42.02
67064;SHT30;58476;48.072;11.970;2023-02-28T01:41:26;21.14;42.51
67064;SHT30;58476;48.072;11.970;2023-02-28T01:43:56;21.11;42.40
67064;SHT30;58476;48.072;11.970;2023-02-28T01:46:21;21.10;42.03
67064;SHT30;58476;48.072;11.970;2023-02-28T01:49:04;21.07;42.05
67064;SHT30;58476;48.072;11.970;2023-02-28T01:51:50;21.04;42.14
67064;SHT30;58476;48.072;11.970;2023-02-28T01:54:23;21.03;42.20
67064;SHT30;58476;48.072;11.970;2023-02-28T01:57:05;21.03;42.24
67064;SHT30;58476;48.072;11.970;2023-02-28T01:59:36;21.04;42.27
67064;SHT30;58476;48.072;11.970;2023-02-28T02:02:02;21.00;42.27
67064;SHT30;58476;48.072;11.970;2023-02-28T02:04:34;21.00;42.26
67064;SHT30;58476;48.072;11.970;2023-02-28T02:07:03;21.03;42.07
67064;SHT30;58476;48.072;11.970;2023-02-28T02:09:29;21.03;42.23
67064;SHT30;58476;48.072;11.970;2023-02-28T02:11:55;21.04;42.21
67064;SHT30;58476;48.072;11.970;2023-02-28T02:17:28;21.06;42.30
67064;SHT30;58476;48.072;11.970;2023-02-28T02:25:36;21.10;42.16
67064;SHT30;58476;48.072;11.970;2023-02-28T02:28:36;21.08;42.17
67064;SHT30;58476;48.072;11.970;2023-02-28T02:36:53;21.11;42.13
67064;SHT30;58476;48.072;11.970;2023-02-28T02:39:47;21.10;42.01
67064;SHT30;58476;48.072;11.970;2023-02-28T02:42:23;21.10;42.01
67064;SHT30;58476;48.072;11.970;2023-02-28T02:45:03;21.10;42.02
67064;SHT30;58476;48.072;11.970;2023-02-28T02:47:31;21.11;42.13
67064;SHT30;58476;48.072;11.970;2023-02-28T02:50:01;21.10;41.92
67064;SHT30;58476;48.072;11.970;2023-02-28T02:52:34;21.10;41.95
67064;SHT30;58476;48.072;11.970;2023-02-28T02:55:03;21.11;42.01
67064;SHT30;58476;48.072;11.970;2023-02-28T02:57:35;21.11;41.94
67064;SHT30;58476;48.072;11.970;2023-02-28T03:00:03;21.08;42.01
67064;SHT30;58476;48.072;11.970;2023-02-28T03:02:30;21.07;41.96
67064;SHT30;58476;48.072;11.970;2023-02-28T03:05:00;21.07;42.03
67064;SHT30;58476;48.072;11.970;2023-02-28T03:07:27;21.04;41.98
67064;SHT30;58476;48.072;11.970;2023-02-28T03:09:55;21.03;42.05
67064;SHT30;58476;48.072;11.970;2023-02-28T03:12:23;21.01;42.09
67064;SHT30;58476;48.072;11.970;2023-02-28T03:15:05;21.01;42.08
67064;SHT30;58476;48.072;11.970;2023-02-28T03:20:15;20.94;42.10
67064;SHT30;58476;48.072;11.970;2023-02-28T03:31:06;20.88;42.30
67064;SHT30;58476;48.072;11.970;2023-02-28T03:33:36;20.87;42.19
67064;SHT30;58476;48.072;11.970;2023-02-28T03:36:08;20.81;42.24
67064;SHT30;58476;48.072;11.970;2023-02-28T03:38:39;20.86;42.37
67064;SHT30;58476;48.072;11.970;2023-02-28T03:41:47;20.81;42.36
67064;SHT30;58476;48.072;11.970;2023-02-28T03:44:16;20.80;42.41
67064;SHT30;58476;48.072;11.970;2023-02-28T03:46:48;20.80;42.34
67064;SHT30;58476;48.072;11.970;2023-02-28T03:49:25;20.77;42.43
67064;SHT30;58476;48.072;11.970;2023-02-28T03:51:52;20.77;42.37
67064;SHT30;58476;48.072;11.970;2023-02-28T03:54:25;20.76;42.37
67064;SHT30;58476;48.072;11.970;2023-02-28T03:57:00;20.72;42.46
67064;SHT30;58476;48.072;11.970;2023-02-28T03:59:36;20.73;42.36
67064;SHT30;58476;48.072;11.970;2023-02-28T04:02:03;20.73;42.43
67064;SHT30;58476;48.072;11.970;2023-02-28T04:04:28;20.69;42.48
67064;SHT30;58476;48.072;11.970;2023-02-28T04:07:02;20.70;42.46
67064;SHT30;58476;48.072;11.970;2023-02-28T04:09:28;20.69;42.51
67064;SHT30;58476;48.072;11.970;2023-02-28T04:11:53;20.66;42.55
67064;SHT30;58476;48.072;11.970;2023-02-28T04:14:19;20.66;42.52
67064;SHT30;58476;48.072;11.970;2023-02-28T04:16:45;20.65;42.56
67064;SHT30;58476;48.072;11.970;2023-02-28T04:19:12;20.62;42.51
67064;SHT30;58476;48.072;11.970;2023-02-28T04:21:44;20.62;42.57
67064;SHT30;58476;48.072;11.970;2023-02-28T04:24:12;20.62;42.54
67064;SHT30;58476;48.072;11.970;2023-02-28T04:26:37;20.59;42.50
67064;SHT30;58476;48.072;11.970;2023-02-28T04:29:05;20.57;42.68
67064;SHT30;58476;48.072;11.970;2023-02-28T04:31:30;20.60;42.51
67064;SHT30;58476;48.072;11.970;2023-02-28T04:33:56;20.62;42.55
67064;SHT30;58476;48.072;11.970;2023-02-28T04:36:21;20.60;42.57
67064;SHT30;58476;48.072;11.970;2023-02-28T04:38:47;20.60;42.54
67064;SHT30;58476;48.072;11.970;2023-02-28T04:41:13;20.62;42.51
67064;SHT30;58476;48.072;11.970;2023-02-28T04:43:38;20.66;42.41
67064;SHT30;58476;48.072;11.970;2023-02-28T04:46:05;20.63;42.37
67064;SHT30;58476;48.072;11.970;2023-02-28T04:48:33;20.70;42.41
67064;SHT30;58476;48.072;11.970;2023-02-28T04:51:03;20.66;42.59
67064;SHT30;58476;48.072;11.970;2023-02-28T04:53:29;20.69;42.59
67064;SHT30;58476;48.072;11.970;2023-02-28T04:55:55;20.69;42.38
67064;SHT30;58476;48.072;11.970;2023-02-28T04:58:20;20.72;42.45
67064;SHT30;58476;48.072;11.970;2023-02-28T05:00:45;20.69;42.63
67064;SHT30;58476;48.072;11.970;2023-02-28T05:03:11;20.70;42.27
67064;SHT30;58476;48.072;11.970;2023-02-28T05:05:36;20.76;42.46
67064;SHT30;58476;48.072;11.970;2023-02-28T05:08:04;20.79;42.89
67064;SHT30;58476;48.072;11.970;2023-02-28T05:10:29;20.81;43.23
67064;SHT30;58476;48.072;11.970;2023-02-28T05:12:55;20.80;43.51
67064;SHT30;58476;48.072;11.970;2023-02-28T05:15:20;20.84;43.57
67064;SHT30;58476;48.072;11.970;2023-02-28T05:17:46;20.86;43.30
67064;SHT30;58476;48.072;11.970;2023-02-28T05:20:11;20.86;43.19
67064;SHT30;58476;48.072;11.970;2023-02-28T05:22:37;20.90;43.25
67064;SHT30;58476;48.072;11.970;2023-02-28T05:25:03;20.90;43.33
67064;SHT30;58476;48.072;11.970;2023-02-28T05:27:29;20.94;43.67
67064;SHT30;58476;48.072;11.970;2023-02-28T05:29:54;20.97;43.64
67064;SHT30;58476;48.072;11.970;2023-02-28T05:32:20;20.98;43.18
67064;SHT30;58476;48.072;11.970;2023-02-28T05:34:45;21.01;43.38
67064;SHT30;58476;48.072;11.970;2023-02-28T05:37:12;21.01;43.28
67064;SHT30;58476;48.072;11.970;2023-02-28T05:39:37;21.04;43.15
67064;SHT30;58476;48.072;11.970;2023-02-28T05:42:03;20.96;43.51
67064;SHT30;58476;48.072;11.970;2023-02-28T05:44:28;20.93;43.43
67064;SHT30;58476;48.072;11.970;2023-02-28T05:46:53;20.88;43.27
67064;SHT30;58476;48.072;11.970;2023-02-28T05:49:19;20.84;43.42
67064;SHT30;58476;48.072;11.970;2023-02-28T05:51:44;20.88;43.67
67064;SHT30;58476;48.072;11.970;2023-02-28T05:54:10;20.86;43.83
67064;SHT30;58476;48.072;11.970;2023-02-28T05:56:35;20.87;43.75
67064;SHT30;58476;48.072;11.970;2023-02-28T05:59:00;20.83;43.89
67064;SHT30;58476;48.072;11.970;2023-02-28T06:01:35;20.83;43.70
67064;SHT30;58476;48.072;11.970;2023-02-28T06:04:03;20.79;43.96
67064;SHT30;58476;48.072;11.970;2023-02-28T06:06:28;20.84;43.84
67064;SHT30;58476;48.072;11.970;2023-02-28T06:08:54;20.79;43.95
67064;SHT30;58476;48.072;11.970;2023-02-28T06:11:20;20.76;43.83
67064;SHT30;58476;48.072;11.970;2023-02-28T06:13:45;20.70;44.17
67064;SHT30;58476;48.072;11.970;2023-02-28T06:16:11;20.70;43.71
67064;SHT30;58476;48.072;11.970;2023-02-28T06:18:37;20.70;43.60
67064;SHT30;58476;48.072;11.970;2023-02-28T06:21:03;20.66;43.79
67064;SHT30;58476;48.072;11.970;2023-02-28T06:23:28;20.66;43.78
67064;SHT30;58476;48.072;11.970;2023-02-28T06:25:54;20.62;43.95
67064;SHT30;58476;48.072;11.970;2023-02-28T06:28:19;20.62;43.84
67064;SHT30;58476;48.072;11.970;2023-02-28T06:30:45;20.60;43.57
67064;SHT30;58476;48.072;11.970;2023-02-28T06:33:10;20.59;43.76
67064;SHT30;58476;48.072;11.970;2023-02-28T06:35:35;20.53;43.88
67064;SHT30;58476;48.072;11.970;2023-02-28T06:38:00;20.55;43.87
67064;SHT30;58476;48.072;11.970;2023-02-28T06:40:26;20.52;43.21
67064;SHT30;58476;48.072;11.970;2023-02-28T06:42:51;20.52;43.18
67064;SHT30;58476;48.072;11.970;2023-02-28T06:45:16;20.52;43.31
67064;SHT30;58476;48.072;11.970;2023-02-28T06:47:42;20.50;43.42
67064;SHT30;58476;48.072;11.970;2023-02-28T06:50:10;20.49;43.43
67064;SHT30;58476;48.072;11.970;2023-02-28T06:52:35;20.49;43.41
67064;SHT30;58476;48.072;11.970;2023-02-28T06:55:00;20.49;43.37
67064;SHT30;58476;48.072;11.970;2023-02-28T06:57:30;20.45;43.42
67064;SHT30;58476;48.072;11.970;2023-02-28T06:59:57;20.46;43.42
67064;SHT30;58476;48.072;11.970;2023-02-28T07:02:22;20.46;43.43
67064;SHT30;58476;48.072;11.970;2023-02-28T07:04:48;20.43;43.43
67064;SHT30;58476;48.072;11.970;2023-02-28T07:07:13;20.45;43.43
67064;SHT30;58476;48.072;11.970;2023-02-28T07:09:38;20.45;43.33
67064;SHT30;58476;48.072;11.970;2023-02-28T07:12:04;20.45;43.37
67064;SHT30;58476;48.072;11.970;2023-02-28T07:14:29;20.45;43.29
67064;SHT30;58476;48.072;11.970;2023-02-28T07:16:55;20.45;43.28
67064;SHT30;58476;48.072;11.970;2023-02-28T07:19:20;20.47;43.27
67064;SHT30;58476;48.072;11.970;2023-02-28T07:21:45;20.49;43.22
67064;SHT30;58476;48.072;11.970;2023-02-28T07:24:10;20.52;43.18
67064;SHT30;58476;48.072;11.970;2023-02-28T07:26:36;20.49;43.15
67064;SHT30;58476;48.072;11.970;2023-02-28T07:29:01;20.50;43.09
67064;SHT30;58476;48.072;11.970;2023-02-28T07:31:26;20.52;43.07
67064;SHT30;58476;48.072;11.970;2023-02-28T07:33:52;20.53;43.11
67064;SHT30;58476;48.072;11.970;2023-02-28T07:36:17;20.55;43.06
67064;SHT30;58476;48.072;11.970;2023-02-28T07:38:47;20.55;43.01
67064;SHT30;58476;48.072;11.970;2023-02-28T07:41:12;20.57;43.05
67064;SHT30;58476;48.072;11.970;2023-02-28T07:43:38;20.56;43.00
67064;SHT30;58476;48.072;11.970;2023-02-28T07:46:10;20.56;43.00
67064;SHT30;58476;48.072;11.970;2023-02-28T07:48:35;20.57;43.01
67064;SHT30;58476;48.072;11.970;2023-02-28T07:51:01;20.57;42.98
67064;SHT30;58476;48.072;11.970;2023-02-28T07:53:27;20.59;42.98
67064;SHT30;58476;48.072;11.970;2023-02-28T07:55:56;20.59;42.92
67064;SHT30;58476;48.072;11.970;2023-02-28T07:58:23;20.56;42.92
67064;SHT30;58476;48.072;11.970;2023-02-28T08:00:48;20.55;42.92
67064;SHT30;58476;48.072;11.970;2023-02-28T08:03:13;20.56;42.96
67064;SHT30;58476;48.072;11.970;2023-02-28T08:05:39;20.53;43.00
67064;SHT30;58476;48.072;11.970;2023-02-28T08:08:05;20.53;43.00
67064;SHT30;58476;48.072;11.970;2023-02-28T08:10:31;20.52;43.02
67064;SHT30;58476;48.072;11.970;2023-02-28T08:12:57;20.50;43.01
67064;SHT30;58476;48.072;11.970;2023-02-28T08:15:22;20.47;43.06
67064;SHT30;58476;48.072;11.970;2023-02-28T08:17:47;20.49;43.08
67064;SHT30;58476;48.072;11.970;2023-02-28T08:20:13;20.46;43.11
67064;SHT30;58476;48.072;11.970;2023-02-28T08:22:38;20.43;43.13
67064;SHT30;58476;48.072;11.970;2023-02-28T08:25:04;20.43;43.13
67064;SHT30;58476;48.072;11.970;2023-02-28T08:27:29;20.43;43.15
67064;SHT30;58476;48.072;11.970;2023-02-28T08:29:54;20.43;43.12
67064;SHT30;58476;48.072;11.970;2023-02-28T08:32:20;20.42;43.13
67064;SHT30;58476;48.072;11.970;2023-02-28T08:34:45;20.40;43.09
67064;SHT30;58476;48.072;11.970;2023-02-28T08:37:10;20.40;43.18
67064;SHT30;58476;48.072;11.970;2023-02-28T08:39:36;20.36;43.21
67064;SHT30;58476;48.072;11.970;2023-02-28T08:42:02;20.35;43.17
67064;SHT30;58476;48.072;11.970;2023-02-28T08:44:28;20.36;43.17
67064;SHT30;58476;48.072;11.970;2023-02-28T08:46:53;20.38;43.21
67064;SHT30;58476;48.072;11.970;2023-02-28T08:49:19;20.36;43.11
67064;SHT30;58476;48.072;11.970;2023-02-28T08:51:44;20.33;43.24
67064;SHT30;58476;48.072;11.970;2023-02-28T08:54:10;20.33;43.19
67064;SHT30;58476;48.072;11.970;2023-02-28T08:56:35;20.35;43.23
67064;SHT30;58476;48.072;11.970;2023-02-28T08:59:00;20.33;43.19
67064;SHT30;58476;48.072;11.970;2023-02-28T09:01:27;20.33;43.15
67064;SHT30;58476;48.072;11.970;2023-02-28T09:03:54;20.32;43.24
67064;SHT30;58476;48.072;11.970;2023-02-28T09:06:22;20.29;43.21
67064;SHT30;58476;48.072;11.970;2023-02-28T09:08:48;20.30;43.25
67064;SHT30;58476;48.072;11.970;2023-02-28T09:11:13;20.30;43.28
67064;SHT30;58476;48.072;11.970;2023-02-28T09:13:39;20.29;43.34
67064;SHT30;58476;48.072;11.970;2023-02-28T09:16:07;20.29;43.32
67064;SHT30;58476;48.072;11.970;2023-02-28T09:18:34;20.28;43.44
67064;SHT30;58476;48.072;11.970;2023-02-28T09:21:02;20.28;43.33
67064;SHT30;58476;48.072;11.970;2023-02-28T09:23:28;20.25;43.37
67064;SHT30;58476;48.072;11.970;2023-02-28T09:25:54;20.25;43.52
67064;SHT30;58476;48.072;11.970;2023-02-28T09:28:20;20.24;43.56
67064;SHT30;58476;48.072;11.970;2023-02-28T09:30:51;20.25;43.52
67064;SHT30;58476;48.072;11.970;2023-02-28T09:33:17;20.25;43.43
67064;SHT30;58476;48.072;11.970;2023-02-28T09:35:43;20.25;43.22
67064;SHT30;58476;48.072;11.970;2023-02-28T09:38:09;20.26;43.21
67064;SHT30;58476;48.072;11.970;2023-02-28T09:40:54;20.30;43.10
67064;SHT30;58476;48.072;11.970;2023-02-28T09:43:23;20.29;42.98
67064;SHT30;58476;48.072;11.970;2023-02-28T09:45:54;20.32;43.05
67064;SHT30;58476;48.072;11.970;2023-02-28T09:48:25;20.36;42.98
67064;SHT30;58476;48.072;11.970;2023-02-28T09:50:57;20.39;42.91
67064;SHT30;58476;48.072;11.970;2023-02-28T09:53:35;20.40;43.02
67064;SHT30;58476;48.072;11.970;2023-02-28T09:56:05;20.39;42.92
67064;SHT30;58476;48.072;11.970;2023-02-28T10:02:17;20.47;42.97
67064;SHT30;58476;48.072;11.970;2023-02-28T10:05:00;20.47;42.81
67064;SHT30;58476;48.072;11.970;2023-02-28T10:12:55;20.50;42.77
67064;SHT30;58476;48.072;11.970;2023-02-28T10:15:24;20.55;42.86
67064;SHT30;58476;48.072;11.970;2023-02-28T10:17:54;20.53;42.77
67064;SHT30;58476;48.072;11.970;2023-02-28T10:20:22;20.56;42.77
67064;SHT30;58476;48.072;11.970;2023-02-28T10:22:58;20.56;42.80
67064;SHT30;58476;48.072;11.970;2023-02-28T10:25:27;20.59;42.87
67064;SHT30;58476;48.072;11.970;2023-02-28T10:27:54;20.59;42.82
67064;SHT30;58476;48.072;11.970;2023-02-28T10:30:22;20.56;42.96
67064;SHT30;58476;48.072;11.970;2023-02-28T10:32:52;20.59;42.94
67064;SHT30;58476;48.072;11.970;2023-02-28T10:35:18;20.57;42.98
67064;SHT30;58476;48.072;11.970;2023-02-28T10:37:58;20.53;43.08
67064;SHT30;58476;48.072;11.970;2023-02-28T10:42:57;20.55;43.28
67064;SHT30;58476;48.072;11.970;2023-02-28T10:45:24;20.52;43.41
67064;SHT30;58476;48.072;11.970;2023-02-28T10:56:24;20.47;43.51
67064;SHT30;58476;48.072;11.970;2023-02-28T11:01:44;20.43;43.52
67064;SHT30;58476;48.072;11.970;2023-02-28T11:06:48;20.42;43.55
67064;SHT30;58476;48.072;11.970;2023-02-28T11:09:33;20.40;43.51
67064;SHT30;58476;48.072;11.970;2023-02-28T11:11:59;20.42;43.51
67064;SHT30;58476;48.072;11.970;2023-02-28T11:14:27;20.40;43.47
67064;SHT30;58476;48.072;11.970;2023-02-28T11:16:54;20.40;43.57
67064;SHT30;58476;48.072;11.970;2023-02-28T11:19:44;20.40;43.59
67064;SHT30;58476;48.072;11.970;2023-02-28T11:22:17;20.40;43.71
67064;SHT30;58476;48.072;11.970;2023-02-28T11:24:46;20.40;43.56
67064;SHT30;58476;48.072;11.970;2023-02-28T11:27:24;20.39;43.57
67064;SHT30;58476;48.072;11.970;2023-02-28T11:29:50;20.40;43.54
67064;SHT30;58476;48.072;11.970;2023-02-28T11:32:20;20.38;43.61
67064;SHT30;58476;48.072;11.970;2023-02-28T11:34:58;20.39;43.59
67064;SHT30;58476;48.072;11.970;2023-02-28T11:37:25;20.38;43.71
67064;SHT30;58476;48.072;11.970;2023-02-28T11:39:52;20.39;43.64
67064;SHT30;58476;48.072;11.970;2023-02-28T11:48:09;20.38;43.48
67064;SHT30;58476;48.072;11.970;2023-02-28T11:50:52;20.36;43.61
67064;SHT30;58476;48.072;11.970;2023-02-28T12:01:37;20.49;43.23
67064;SHT30;58476;48.072;11.970;2023-02-28T12:07:04;20.57;42.82
67064;SHT30;58476;48.072;11.970;2023-02-28T12:18:31;20.70;42.77
67064;SHT30;58476;48.072;11.970;2023-02-28T12:21:11;20.72;42.77
67064;SHT30;58476;48.072;11.970;2023-02-28T12:28:50;20.80;42.50
67064;SHT30;58476;48.072;11.970;2023-02-28T12:31:33;20.83;42.47
67064;SHT30;58476;48.072;11.970;2023-02-28T12:34:06;20.86;42.49
67064;SHT30;58476;48.072;11.970;2023-02-28T12:36:35;20.87;42.38
67064;SHT30;58476;48.072;11.970;2023-02-28T12:39:07;20.88;43.08
67064;SHT30;58476;48.072;11.970;2023-02-28T12:41:52;20.91;42.83
67064;SHT30;58476;48.072;11.970;2023-02-28T12:44:23;20.96;42.74
67064;SHT30;58476;48.072;11.970;2023-02-28T12:46:53;20.97;42.81
67064;SHT30;58476;48.072;11.970;2023-02-28T12:49:29;20.97;42.94
67064;SHT30;58476;48.072;11.970;2023-02-28T12:51:55;21.00;42.83
67064;SHT30;58476;48.072;11.970;2023-02-28T12:54:37;21.03;43.36
67064;SHT30;58476;48.072;11.970;2023-02-28T12:57:08;21.07;43.73
67064;SHT30;58476;48.072;11.970;2023-02-28T12:59:54;21.03;43.49
67064;SHT30;58476;48.072;11.970;2023-02-28T13:08:20;21.01;43.70
67064;SHT30;58476;48.072;11.970;2023-02-28T13:10:50;21.01;43.62
67064;SHT30;58476;48.072;11.970;2023-02-28T13:13:18;21.01;43.27
67064;SHT30;58476;48.072;11.970;2023-02-28T13:16:06;21.01;43.45
67064;SHT30;58476;48.072;11.970;2023-02-28T13:18:46;21.03;43.20
67064;SHT30;58476;48.072;11.970;2023-02-28T13:21:29;21.08;43.35
67064;SHT30;58476;48.072;11.970;2023-02-28T13:26:20;21.10;43.71
67064;SHT30;58476;48.072;11.970;2023-02-28T13:31:14;21.07;43.13
67064;SHT30;58476;48.072;11.970;2023-02-28T13:38:42;21.10;42.07
67064;SHT30;58476;48.072;11.970;2023-02-28T13:47:23;21.21;43.35
67064;SHT30;58476;48.072;11.970;2023-02-28T13:49:49;21.24;43.03
67064;SHT30;58476;48.072;11.970;2023-02-28T13:52:19;21.28;43.50
67064;SHT30;58476;48.072;11.970;2023-02-28T14:00:16;21.42;43.22
67064;SHT30;58476;48.072;11.970;2023-02-28T14:05:47;21.51;43.03
67064;SHT30;58476;48.072;11.970;2023-02-28T14:08:16;21.56;42.93
67064;SHT30;58476;48.072;11.970;2023-02-28T14:10:45;21.59;42.73
67064;SHT30;58476;48.072;11.970;2023-02-28T14:15:58;21.65;43.27
67064;SHT30;58476;48.072;11.970;2023-02-28T14:21:26;21.69;43.05
67064;SHT30;58476;48.072;11.970;2023-02-28T14:24:25;21.75;42.97
67064;SHT30;58476;48.072;11.970;2023-02-28T14:27:21;21.79;43.03
67064;SHT30;58476;48.072;11.970;2023-02-28T14:34:54;21.95;42.48
67064;SHT30;58476;48.072;11.970;2023-02-28T14:37:30;21.95;42.33
67064;SHT30;58476;48.072;11.970;2023-02-28T14:39:59;22.00;42.12
67064;SHT30;58476;48.072;11.970;2023-02-28T14:42:36;22.06;42.40
67064;SHT30;58476;48.072;11.970;2023-02-28T14:45:02;22.10;41.96
67064;SHT30;58476;48.072;11.970;2023-02-28T14:47:31;22.14;41.98
67064;SHT30;58476;48.072;11.970;2023-02-28T14:49:58;22.16;41.98
67064;SHT30;58476;48.072;11.970;2023-02-28T14:52:26;22.16;41.81
67064;SHT30;58476;48.072;11.970;2023-02-28T14:55:13;22.17;41.99
67064;SHT30;58476;48.072;11.970;2023-02-28T14:57:42;22.18;41.97
67064;SHT30;58476;48.072;11.970;2023-02-28T15:00:23;22.23;41.84
67064;SHT30;58476;48.072;11.970;2023-02-28T15:02:49;22.29;41.87
67064;SHT30;58476;48.072;11.970;2023-02-28T15:07:40;22.30;41.85
67064;SHT30;58476;48.072;11.970;2023-02-28T15:10:19;22.32;41.85
67064;SHT30;58476;48.072;11.970;2023-02-28T15:15:17;22.37;42.12
67064;SHT30;58476;48.072;11.970;2023-02-28T15:17:48;22.39;41.80
67064;SHT30;58476;48.072;11.970;2023-02-28T15:20:15;22.41;42.13
67064;SHT30;58476;48.072;11.970;2023-02-28T15:22:41;22.41;42.08
67064;SHT30;58476;48.072;11.970;2023-02-28T15:25:07;22.43;42.08
67064;SHT30;58476;48.072;11.970;2023-02-28T15:27:42;22.48;42.10
67064;SHT30;58476;48.072;11.970;2023-02-28T15:30:16;22.57;42.01
67064;SHT30;58476;48.072;11.970;2023-02-28T15:32:42;22.65;41.93
67064;SHT30;58476;48.072;11.970;2023-02-28T15:38:05;22.58;41.44
67064;SHT30;58476;48.072;11.970;2023-02-28T15:40:42;22.50;41.29
67064;SHT30;58476;48.072;11.970;2023-02-28T15:43:23;22.46;41.21
67064;SHT30;58476;48.072;11.970;2023-02-28T15:45:50;22.43;41.60
67064;SHT30;58476;48.072;11.970;2023-02-28T15:48:38;22.40;41.61
67064;SHT30;58476;48.072;11.970;2023-02-28T15:51:12;22.39;41.75
67064;SHT30;58476;48.072;11.970;2023-02-28T15:53:47;22.34;42.02
67064;SHT30;58476;48.072;11.970;2023-02-28T15:56:34;22.36;42.38
67064;SHT30;58476;48.072;11.970;2023-02-28T15:59:03;22.34;42.60
67064;SHT30;58476;48.072;11.970;2023-02-28T16:01:33;22.37;42.42
67064;SHT30;58476;48.072;11.970;2023-02-28T16:04:06;22.36;42.50
67064;SHT30;58476;48.072;11.970;2023-02-28T16:06:40;22.36;42.47
67064;SHT30;58476;48.072;11.970;2023-02-28T16:09:09;22.34;42.44
67064;SHT30;58476;48.072;11.970;2023-02-28T16:11:39;22.32;42.23
67064;SHT30;58476;48.072;11.970;2023-02-28T16:14:05;22.32;42.46
67064;SHT30;58476;48.072;11.970;2023-02-28T16:16:30;22.29;42.73
67064;SHT30;58476;48.072;11.970;2023-02-28T16:18:56;22.29;42.61
67064;SHT30;58476;48.072;11.970;2023-02-28T16:21:21;22.27;42.98
67064;SHT30;58476;48.072;11.970;2023-02-28T16:23:47;22.24;43.15
67064;SHT30;58476;48.072;11.970;2023-02-28T16:26:20;22.18;42.44
67064;SHT30;58476;48.072;11.970;2023-02-28T16:28:46;22.14;42.93
67064;SHT30;58476;48.072;11.970;2023-02-28T16:31:12;22.16;42.25
67064;SHT30;58476;48.072;11.970;2023-02-28T16:33:37;22.13;42.79
67064;SHT30;58476;48.072;11.970;2023-02-28T16:36:03;22.13;43.34
67064;SHT30;58476;48.072;11.970;2023-02-28T16:38:28;22.10;43.59
67064;SHT30;58476;48.072;11.970;2023-02-28T16:43:56;22.10;43.94
67064;SHT30;58476;48.072;11.970;2023-02-28T16:46:23;22.12;44.49
67064;SHT30;58476;48.072;11.970;2023-02-28T16:48:49;22.13;44.52
67064;SHT30;58476;48.072;11.970;2023-02-28T16:51:15;22.13;44.41
67064;SHT30;58476;48.072;11.970;2023-02-28T16:53:41;22.16;44.52
67064;SHT30;58476;48.072;11.970;2023-02-28T16:56:19;22.14;44.96
67064;SHT30;58476;48.072;11.970;2023-02-28T16:58:45;22.14;44.92
67064;SHT30;58476;48.072;11.970;2023-02-28T17:01:11;22.16;45.13
67064;SHT30;58476;48.072;11.970;2023-02-28T17:03:37;22.18;44.87
67064;SHT30;58476;48.072;11.970;2023-02-28T17:06:03;22.17;44.76
67064;SHT30;58476;48.072;11.970;2023-02-28T17:08:29;22.17;44.79
67064;SHT30;58476;48.072;11.970;2023-02-28T17:10:55;22.17;44.94
67064;SHT30;58476;48.072;11.970;2023-02-28T17:13:20;22.18;44.98
67064;SHT30;58476;48.072;11.970;2023-02-28T17:15:46;22.13;45.30
67064;SHT30;58476;48.072;11.970;2023-02-28T17:18:15;22.20;45.37
67064;SHT30;58476;48.072;11.970;2023-02-28T17:20:41;22.17;45.56
67064;SHT30;58476;48.072;11.970;2023-02-28T17:23:07;22.18;45.69
67064;SHT30;58476;48.072;11.970;2023-02-28T17:25:32;22.17;45.82
67064;SHT30;58476;48.072;11.970;2023-02-28T17:27:57;22.17;45.91
67064;SHT30;58476;48.072;11.970;2023-02-28T17:30:26;22.18;45.78
67064;SHT30;58476;48.072;11.970;2023-02-28T17:32:51;22.20;45.64
67064;SHT30;58476;48.072;11.970;2023-02-28T17:35:17;22.21;45.41
67064;SHT30;58476;48.072;11.970;2023-02-28T17:37:42;22.21;45.49
67064;SHT30;58476;48.072;11.970;2023-02-28T17:40:17;22.20;45.42